Time;durP1;ratioP1;P1;durP2;ratioP2;P2;SDS_P1;SDS_P2;PMS_P1;PMS_P2;Temp;Humidity;BMP_temperature;BMP_pressure;BME280_temperature;BME280_humidity;BME280_pressure;Samples;Min_cycle;Max_cycle;Signal;HPM_P1;HPM_P2
2024/01/23 05:51:57;;;;;;;0.13;0.13;;;10.00;87.80;;;;;;5554481;23;20096;-84
2024/01/23 05:54:25;;;;;;;0.20;0.20;;;10.00;87.70;;;;;;5013471;28;20450;-84
2024/01/23 05:57:02;;;;;;;0.20;0.20;;;10.00;87.80;;;;;;5011046;28;20057;-88
2024/01/23 06:00:02;;;;;;;0.10;0.10;;;10.00;87.80;;;;;;4999492;28;20363;-84
2024/01/23 06:02:27;;;;;;;0.20;0.20;;;10.00;87.80;;;;;;5010104;28;20038;-88
2024/01/23 06:04:53;;;;;;;0.10;0.10;;;10.00;87.90;;;;;;5016120;28;20036;-84
2024/01/23 06:07:19;;;;;;;0.20;0.20;;;10.00;87.80;;;;;;5015050;28;20639;-84
2024/01/23 06:09:47;;;;;;;0.10;0.10;;;10.10;87.70;;;;;;5012555;28;20029;-83
2024/01/23 06:12:13;;;;;;;0.13;0.13;;;10.00;87.80;;;;;;5019313;28;20030;-87
2024/01/23 06:14:38;;;;;;;0.13;0.13;;;10.10;87.80;;;;;;5013387;28;20034;-84
2024/01/23 06:17:04;;;;;;;0.10;0.10;;;10.10;87.80;;;;;;4999257;28;20505;-85
2024/01/23 06:19:29;;;;;;;0.10;0.10;;;10.10;87.90;;;;;;5013670;28;22494;-83
2024/01/23 06:21:55;;;;;;;0.10;0.10;;;10.00;87.90;;;;;;4999027;28;20070;-85
2024/01/23 06:24:21;;;;;;;0.10;0.10;;;10.00;88.00;;;;;;5013430;28;20026;-83
2024/01/23 06:26:46;;;;;;;0.10;0.10;;;10.00;88.10;;;;;;5017551;28;20026;-80
2024/01/23 06:29:12;;;;;;;0.10;0.10;;;9.90;88.30;;;;;;5017925;28;20022;-77
2024/01/23 06:31:38;;;;;;;0.10;0.10;;;9.90;88.50;;;;;;5012345;28;20026;-77
2024/01/23 06:34:05;;;;;;;0.10;0.10;;;9.90;88.80;;;;;;5016535;28;20026;-77
2024/01/23 06:36:31;;;;;;;0.10;0.10;;;9.80;89.00;;;;;;5010973;28;20462;-79
2024/01/23 06:38:57;;;;;;;0.13;0.13;;;9.80;89.00;;;;;;5001967;28;20073;-79
2024/01/23 06:41:23;;;;;;;0.10;0.10;;;9.80;89.10;;;;;;5007916;28;20026;-77
2024/01/23 06:43:49;;;;;;;0.10;0.10;;;9.80;89.00;;;;;;5014520;28;20045;-77
2024/01/23 06:46:15;;;;;;;0.17;0.17;;;9.90;89.00;;;;;;5018059;28;20033;-77
2024/01/23 06:48:40;;;;;;;0.10;0.10;;;9.90;88.90;;;;;;5015781;28;20022;-77
2024/01/23 06:51:06;;;;;;;0.10;0.10;;;10.00;88.90;;;;;;5001481;28;20034;-78
2024/01/23 06:53:32;;;;;;;0.10;0.10;;;10.00;88.90;;;;;;5008486;28;20049;-77
2024/01/23 06:55:57;;;;;;;0.20;0.20;;;9.90;88.90;;;;;;5017820;28;20045;-78
2024/01/23 06:58:23;;;;;;;0.13;0.13;;;10.00;88.90;;;;;;5017364;28;20022;-78
2024/01/23 07:00:48;;;;;;;0.13;0.13;;;10.00;88.90;;;;;;5017562;28;20033;-78
2024/01/23 07:03:14;;;;;;;0.10;0.10;;;10.00;88.90;;;;;;5014641;28;20022;-77
2024/01/23 07:05:40;;;;;;;0.15;0.15;;;10.00;89.00;;;;;;5017465;28;20068;-78
2024/01/23 07:08:05;;;;;;;0.10;0.10;;;10.00;89.00;;;;;;5017592;28;20124;-77
2024/01/23 07:10:31;;;;;;;0.20;0.20;;;10.00;89.00;;;;;;5016678;28;20103;-77
2024/01/23 07:12:57;;;;;;;0.10;0.10;;;10.00;89.00;;;;;;5014041;28;20034;-77
2024/01/23 07:15:23;;;;;;;0.10;0.10;;;9.90;89.30;;;;;;5012870;28;20064;-78
2024/01/23 07:17:48;;;;;;;0.10;0.10;;;9.90;89.50;;;;;;5016357;28;20029;-77
2024/01/23 07:20:14;;;;;;;0.10;0.10;;;9.90;89.60;;;;;;5014570;28;20026;-77
2024/01/23 07:22:40;;;;;;;0.10;0.10;;;10.00;89.70;;;;;;5017438;28;20010;-77
2024/01/23 07:25:06;;;;;;;0.10;0.10;;;10.00;89.80;;;;;;5017151;28;20034;-77
2024/01/23 07:27:32;;;;;;;0.10;0.10;;;10.00;89.80;;;;;;5016173;28;20568;-77
2024/01/23 07:29:58;;;;;;;0.10;0.10;;;10.00;90.10;;;;;;5016357;28;20057;-77
2024/01/23 07:32:24;;;;;;;0.10;0.10;;;10.10;90.30;;;;;;5017168;28;20018;-77
2024/01/23 07:34:51;;;;;;;0.10;0.10;;;10.10;90.40;;;;;;5016901;28;20052;-77
2024/01/23 07:37:16;;;;;;;0.10;0.10;;;10.10;90.40;;;;;;5017292;28;20433;-77
2024/01/23 07:39:42;;;;;;;0.20;0.20;;;10.20;90.50;;;;;;5014624;28;20041;-77
2024/01/23 07:42:08;;;;;;;0.10;0.10;;;10.20;90.50;;;;;;5017030;28;20109;-77
2024/01/23 07:44:38;;;;;;;0.20;0.20;;;10.20;90.50;;;;;;5015969;28;20109;-77
2024/01/23 07:47:04;;;;;;;0.10;0.10;;;10.20;90.60;;;;;;5012418;28;20401;-77
2024/01/23 07:49:29;;;;;;;0.20;0.20;;;10.30;90.60;;;;;;5013105;28;20030;-77
2024/01/23 07:51:55;;;;;;;0.10;0.10;;;10.30;90.60;;;;;;5014712;28;20038;-78
2024/01/23 07:54:21;;;;;;;0.10;0.10;;;10.30;90.70;;;;;;5017085;28;20025;-78
2024/01/23 07:56:47;;;;;;;0.10;0.10;;;10.40;90.80;;;;;;5000872;28;20026;-77
2024/01/23 07:59:13;;;;;;;0.10;0.10;;;10.40;90.90;;;;;;4996376;28;20539;-77
2024/01/23 08:01:38;;;;;;;0.10;0.10;;;10.40;91.00;;;;;;4996051;28;20026;-78
2024/01/23 08:04:04;;;;;;;0.10;0.10;;;10.50;90.80;;;;;;4997041;28;20121;-78
2024/01/23 08:06:30;;;;;;;0.10;0.10;;;10.50;90.90;;;;;;5010522;28;20061;-78
2024/01/23 08:08:56;;;;;;;0.10;0.10;;;10.50;91.00;;;;;;5006696;28;20112;-77
2024/01/23 08:11:21;;;;;;;0.20;0.13;;;10.50;91.00;;;;;;5014779;28;20053;-77
2024/01/23 08:13:47;;;;;;;0.10;0.10;;;10.50;91.10;;;;;;5002091;28;20036;-77
2024/01/23 08:16:13;;;;;;;0.10;0.10;;;10.60;91.00;;;;;;5014878;28;20499;-78
2024/01/23 08:18:38;;;;;;;0.10;0.10;;;10.60;91.00;;;;;;5009608;28;20096;-77
2024/01/23 08:21:04;;;;;;;0.10;0.10;;;10.60;91.00;;;;;;4995965;28;20460;-78
2024/01/23 08:23:30;;;;;;;0.10;0.10;;;10.70;91.00;;;;;;4996819;28;20018;-78
2024/01/23 08:25:56;;;;;;;0.10;0.10;;;10.60;91.00;;;;;;5010326;28;20038;-78
2024/01/23 08:28:24;;;;;;;0.20;0.20;;;10.60;91.10;;;;;;5014957;28;20121;-77
2024/01/23 08:30:50;;;;;;;0.20;0.10;;;10.60;91.20;;;;;;5011734;28;20115;-78
2024/01/23 08:33:18;;;;;;;0.10;0.10;;;10.60;91.20;;;;;;5000499;28;20022;-78
2024/01/23 08:35:44;;;;;;;0.20;0.20;;;10.70;91.20;;;;;;5016276;28;20072;-78
2024/01/23 08:38:10;;;;;;;0.20;0.20;;;10.60;91.10;;;;;;5016790;28;20022;-77
2024/01/23 08:40:37;;;;;;;0.10;0.10;;;10.60;91.10;;;;;;5020926;28;20441;-77
2024/01/23 08:43:03;;;;;;;0.10;0.10;;;10.70;91.10;;;;;;5000671;28;20510;-77
2024/01/23 08:45:29;;;;;;;0.10;0.10;;;10.80;91.00;;;;;;4997094;28;20038;-78
2024/01/23 08:47:55;;;;;;;0.10;0.10;;;10.80;91.00;;;;;;4996989;28;20038;-77
2024/01/23 08:50:21;;;;;;;0.10;0.10;;;10.80;90.90;;;;;;4996496;28;20030;-78
2024/01/23 08:52:47;;;;;;;0.10;0.10;;;10.80;90.80;;;;;;4997054;28;20133;-78
2024/01/23 08:55:14;;;;;;;0.10;0.10;;;10.90;90.70;;;;;;4997162;28;20034;-77
2024/01/23 08:57:40;;;;;;;0.10;0.10;;;10.90;90.70;;;;;;4995243;28;20105;-77
2024/01/23 09:00:07;;;;;;;0.10;0.10;;;10.90;90.60;;;;;;4997156;28;20505;-78
2024/01/23 09:02:33;;;;;;;0.10;0.10;;;10.90;90.70;;;;;;4996930;28;20021;-78
2024/01/23 09:04:59;;;;;;;0.10;0.10;;;10.90;90.70;;;;;;5005119;28;20100;-77
2024/01/23 09:07:25;;;;;;;0.10;0.10;;;11.00;90.50;;;;;;5003183;28;20030;-77
2024/01/23 09:09:50;;;;;;;0.10;0.10;;;11.00;90.50;;;;;;5015132;28;20037;-77
2024/01/23 09:12:20;;;;;;;0.10;0.10;;;11.00;90.50;;;;;;5010795;28;20030;-77
2024/01/23 09:14:46;;;;;;;0.10;0.10;;;11.00;90.50;;;;;;4996537;28;20026;-77
2024/01/23 09:17:12;;;;;;;0.10;0.10;;;11.00;90.50;;;;;;4996594;28;20029;-77
2024/01/23 09:19:38;;;;;;;0.10;0.10;;;11.10;90.60;;;;;;5012685;28;20037;-78
2024/01/23 09:22:04;;;;;;;0.20;0.20;;;11.20;90.40;;;;;;5015307;28;20038;-77
2024/01/23 09:24:30;;;;;;;0.10;0.10;;;11.20;90.40;;;;;;5014869;28;20398;-77
2024/01/23 09:26:59;;;;;;;0.10;0.10;;;11.20;90.40;;;;;;5013066;28;20025;-78
2024/01/23 09:29:26;;;;;;;0.10;0.10;;;11.20;90.40;;;;;;4996413;28;20033;-77
2024/01/23 09:31:52;;;;;;;0.10;0.10;;;11.30;90.40;;;;;;4997501;28;20022;-77
2024/01/23 09:34:17;;;;;;;0.10;0.10;;;11.20;90.40;;;;;;5001743;28;20052;-77
2024/01/23 09:36:43;;;;;;;0.10;0.10;;;11.30;90.40;;;;;;5003259;28;20478;-77
2024/01/23 09:39:13;;;;;;;0.10;0.10;;;11.30;90.40;;;;;;5010487;28;20172;-77
2024/01/23 09:41:46;;;;;;;0.10;0.10;;;11.30;90.40;;;;;;5016398;28;20018;-78
2024/01/23 09:44:12;;;;;;;0.10;0.10;;;11.30;90.50;;;;;;5018565;28;20026;-77
2024/01/23 09:46:38;;;;;;;0.10;0.10;;;11.30;90.30;;;;;;5010895;28;20539;-77
2024/01/23 09:49:04;;;;;;;0.10;0.10;;;11.30;90.40;;;;;;5003652;28;20486;-77
2024/01/23 09:51:30;;;;;;;0.10;0.10;;;11.20;90.50;;;;;;5006202;28;20065;-77
2024/01/23 09:53:56;;;;;;;0.10;0.10;;;11.30;90.60;;;;;;5002439;28;20046;-77
2024/01/23 09:56:22;;;;;;;0.15;0.15;;;11.30;90.60;;;;;;5000156;28;20478;-78
2024/01/23 09:58:49;;;;;;;0.10;0.10;;;11.30;90.70;;;;;;4999522;28;20085;-77
2024/01/23 10:01:18;;;;;;;0.10;0.10;;;11.30;90.60;;;;;;5000104;28;20062;-77
2024/01/23 10:03:48;;;;;;;0.10;0.10;;;11.30;90.60;;;;;;4998245;28;20042;-77
2024/01/23 10:06:14;;;;;;;0.10;0.10;;;11.30;90.70;;;;;;5016184;28;20033;-77
2024/01/23 10:08:40;;;;;;;0.10;0.10;;;11.30;90.60;;;;;;5014195;28;20066;-77
2024/01/23 10:11:06;;;;;;;0.10;0.10;;;11.40;90.50;;;;;;5015502;28;20053;-77
2024/01/23 10:13:32;;;;;;;0.10;0.10;;;11.30;90.60;;;;;;5017424;28;20036;-77
2024/01/23 10:15:57;;;;;;;0.10;0.10;;;11.40;90.60;;;;;;5013882;28;20022;-77
2024/01/23 10:18:25;;;;;;;0.10;0.10;;;11.40;90.60;;;;;;5015031;28;20022;-77
2024/01/23 10:20:51;;;;;;;0.20;0.20;;;11.40;90.50;;;;;;5018174;28;20061;-77
2024/01/23 10:23:17;;;;;;;0.13;0.13;;;11.40;90.50;;;;;;5018745;28;20473;-77
2024/01/23 10:25:43;;;;;;;0.10;0.10;;;11.50;90.60;;;;;;5016918;28;20022;-77
2024/01/23 10:28:09;;;;;;;0.10;0.10;;;11.40;90.50;;;;;;5017380;28;20037;-77
2024/01/23 10:30:39;;;;;;;0.10;0.10;;;11.50;90.60;;;;;;5015735;28;20018;-77
2024/01/23 10:33:06;;;;;;;0.10;0.10;;;11.50;90.50;;;;;;5014682;28;20108;-77
2024/01/23 10:35:35;;;;;;;0.13;0.13;;;11.50;90.50;;;;;;5016994;28;20105;-77
2024/01/23 10:38:02;;;;;;;0.10;0.10;;;11.50;90.50;;;;;;5018123;28;20018;-77
2024/01/23 10:40:29;;;;;;;0.10;0.10;;;11.50;90.40;;;;;;5016142;28;20026;-77
2024/01/23 10:42:56;;;;;;;0.10;0.10;;;11.50;90.40;;;;;;5016221;28;20026;-77
2024/01/23 10:45:23;;;;;;;0.15;0.15;;;11.60;90.30;;;;;;5016903;28;20054;-77
2024/01/23 10:47:49;;;;;;;0.13;0.13;;;11.70;90.30;;;;;;5015749;28;20482;-77
2024/01/23 10:50:15;;;;;;;0.10;0.10;;;11.70;90.10;;;;;;5016645;28;20041;-78
2024/01/23 10:52:46;;;;;;;0.10;0.10;;;11.70;90.10;;;;;;5016644;28;20460;-77
2024/01/23 10:55:12;;;;;;;0.20;0.20;;;11.80;90.00;;;;;;5011531;28;20397;-77
2024/01/23 10:57:39;;;;;;;0.10;0.10;;;11.80;89.90;;;;;;5017895;28;20371;-77
2024/01/23 11:00:10;;;;;;;0.10;0.10;;;11.80;89.70;;;;;;5013031;28;20041;-78
2024/01/23 11:02:45;;;;;;;0.10;0.10;;;11.90;89.60;;;;;;5017860;28;20469;-77
2024/01/23 11:05:11;;;;;;;0.20;0.20;;;11.90;89.60;;;;;;5013819;28;20068;-77
2024/01/23 11:07:46;;;;;;;0.20;0.20;;;12.00;89.50;;;;;;5016728;28;20018;-77
2024/01/23 11:10:31;;;;;;;0.10;0.10;;;12.00;89.30;;;;;;5013362;28;20522;-77
2024/01/23 11:13:18;;;;;;;0.20;0.20;;;12.10;89.30;;;;;;5015715;28;20026;-77
2024/01/23 11:15:44;;;;;;;0.10;0.10;;;12.20;89.10;;;;;;5017454;28;20052;-78
2024/01/23 11:18:29;;;;;;;0.10;0.10;;;12.20;89.10;;;;;;5016912;28;20045;-77
2024/01/23 11:21:08;;;;;;;0.13;0.13;;;12.30;88.90;;;;;;5015340;28;20017;-77
2024/01/23 11:23:38;;;;;;;0.10;0.10;;;12.30;88.70;;;;;;5013331;28;20040;-77
2024/01/23 11:26:19;;;;;;;0.10;0.10;;;12.40;88.50;;;;;;5017373;28;20049;-78
2024/01/23 11:28:51;;;;;;;0.10;0.10;;;12.50;88.50;;;;;;5012821;28;20105;-78
2024/01/23 11:31:21;;;;;;;0.10;0.10;;;12.50;88.30;;;;;;5016102;28;20037;-77
2024/01/23 11:33:47;;;;;;;0.10;0.10;;;12.60;88.30;;;;;;5016870;28;20014;-77
2024/01/23 11:36:14;;;;;;;0.10;0.10;;;12.60;88.10;;;;;;5015550;28;20108;-77
2024/01/23 11:38:48;;;;;;;0.10;0.10;;;12.70;88.10;;;;;;5015996;28;20474;-78
2024/01/23 11:41:22;;;;;;;0.10;0.10;;;12.80;87.90;;;;;;5012082;28;20030;-78
2024/01/23 11:44:02;;;;;;;0.10;0.10;;;12.90;87.60;;;;;;5015525;28;20068;-78
2024/01/23 11:46:28;;;;;;;0.20;0.20;;;13.00;87.10;;;;;;5016046;28;20052;-76
2024/01/23 11:48:54;;;;;;;0.10;0.10;;;13.10;87.00;;;;;;5015215;28;20033;-78
2024/01/23 11:51:24;;;;;;;0.17;0.17;;;13.10;86.90;;;;;;5016596;28;20097;-79
2024/01/23 11:53:50;;;;;;;0.10;0.10;;;13.20;86.60;;;;;;5013998;28;20080;-78
2024/01/23 11:56:15;;;;;;;0.10;0.10;;;13.20;86.50;;;;;;5019096;28;20041;-79
2024/01/23 11:58:42;;;;;;;0.10;0.10;;;13.20;86.40;;;;;;5014043;28;20118;-78
2024/01/23 12:01:09;;;;;;;0.10;0.10;;;13.20;86.20;;;;;;5013632;28;20061;-77
2024/01/23 12:03:35;;;;;;;0.10;0.10;;;13.20;86.20;;;;;;5016634;28;20022;-78
2024/01/23 12:06:02;;;;;;;0.10;0.10;;;13.30;86.30;;;;;;5014985;28;20030;-77
2024/01/23 12:08:28;;;;;;;0.10;0.10;;;13.30;86.20;;;;;;5016087;28;20026;-78
2024/01/23 12:10:54;;;;;;;0.20;0.20;;;13.20;85.90;;;;;;5014819;28;20048;-79
2024/01/23 12:13:24;;;;;;;0.15;0.15;;;13.20;85.90;;;;;;5016428;28;20105;-87
2024/01/23 12:15:49;;;;;;;0.10;0.10;;;13.30;85.90;;;;;;5002419;28;20038;-80
2024/01/23 12:18:20;;;;;;;0.10;0.10;;;13.30;85.80;;;;;;4995857;28;20022;-77
2024/01/23 12:20:50;;;;;;;0.10;0.10;;;13.30;85.50;;;;;;4996929;28;20019;-78
2024/01/23 12:23:16;;;;;;;0.10;0.10;;;13.30;85.70;;;;;;5011283;28;20030;-78
2024/01/23 12:25:42;;;;;;;0.10;0.10;;;13.30;85.60;;;;;;5014616;28;20034;-78
2024/01/23 12:28:08;;;;;;;0.10;0.10;;;13.20;85.60;;;;;;5016215;28;20032;-78
2024/01/23 12:30:34;;;;;;;0.10;0.10;;;13.20;85.60;;;;;;5013040;28;20065;-78
2024/01/23 12:32:59;;;;;;;0.10;0.10;;;13.20;85.70;;;;;;5010776;28;20018;-79
2024/01/23 12:35:25;;;;;;;0.10;0.10;;;13.30;85.50;;;;;;5015053;28;20547;-78
2024/01/23 12:37:52;;;;;;;0.10;0.10;;;13.40;85.60;;;;;;5015924;28;20565;-78
2024/01/23 12:40:18;;;;;;;0.20;0.20;;;13.50;85.50;;;;;;5016282;28;20025;-78
2024/01/23 12:42:44;;;;;;;0.10;0.10;;;13.50;85.20;;;;;;5013224;28;20023;-78
2024/01/23 12:45:14;;;;;;;0.10;0.10;;;13.70;85.20;;;;;;5016003;28;20113;-78
2024/01/23 12:47:43;;;;;;;0.10;0.10;;;13.60;85.20;;;;;;5015124;28;20025;-78
2024/01/23 12:50:16;;;;;;;0.10;0.10;;;13.60;85.30;;;;;;5014853;28;20021;-78
2024/01/23 12:52:42;;;;;;;;;;;13.50;85.30;;;;;;5012696;28;20117;-77
2024/01/23 12:55:08;;;;;;;0.10;0.10;;;13.50;85.50;;;;;;5016160;28;20007;-78
2024/01/23 12:57:34;;;;;;;0.10;0.10;;;13.50;85.70;;;;;;5009516;28;20031;-79
2024/01/23 12:59:59;;;;;;;0.10;0.10;;;13.60;85.70;;;;;;5013902;28;20400;-79
2024/01/23 13:02:25;;;;;;;0.10;0.10;;;13.60;85.70;;;;;;5014664;28;20032;-79
2024/01/23 13:04:51;;;;;;;0.10;0.10;;;13.60;85.90;;;;;;5013908;28;20510;-78
2024/01/23 13:07:17;;;;;;;0.10;0.10;;;13.70;86.00;;;;;;5015992;28;20029;-78
2024/01/23 13:09:42;;;;;;;0.10;0.10;;;13.70;86.10;;;;;;5014731;28;20026;-78
2024/01/23 13:12:09;;;;;;;0.10;0.10;;;13.70;86.10;;;;;;5016840;28;20125;-78
2024/01/23 13:14:36;;;;;;;0.10;0.10;;;13.60;86.50;;;;;;5019778;28;20061;-78
2024/01/23 13:17:04;;;;;;;0.10;0.10;;;13.60;86.80;;;;;;5019822;28;20026;-78
2024/01/23 13:19:30;;;;;;;0.10;0.10;;;13.50;87.20;;;;;;5018662;28;20033;-79
2024/01/23 13:21:56;;;;;;;0.10;0.10;;;13.50;87.30;;;;;;5016958;28;20438;-78
2024/01/23 13:24:21;;;;;;;0.10;0.10;;;13.50;87.50;;;;;;5018499;28;20014;-79
2024/01/23 13:26:47;;;;;;;0.10;0.10;;;13.50;87.70;;;;;;5018933;28;20401;-78
2024/01/23 13:29:13;;;;;;;0.10;0.10;;;13.50;88.10;;;;;;5019146;28;20561;-78
2024/01/23 13:31:40;;;;;;;0.10;0.10;;;13.50;88.10;;;;;;5019149;28;20026;-78
2024/01/23 13:34:06;;;;;;;0.10;0.10;;;13.50;88.20;;;;;;5019226;28;20025;-79
2024/01/23 13:36:32;;;;;;;0.10;0.10;;;13.50;88.40;;;;;;5015256;28;20025;-78
2024/01/23 13:38:57;;;;;;;0.10;0.10;;;13.50;88.60;;;;;;5015243;28;20022;-78
2024/01/23 13:41:23;;;;;;;0.00;0.00;;;13.50;88.90;;;;;;5017688;28;20026;-78
2024/01/23 13:43:49;;;;;;;0.10;0.10;;;13.50;88.80;;;;;;5017441;28;20025;-78
2024/01/23 13:46:14;;;;;;;0.10;0.10;;;13.60;88.80;;;;;;5018160;28;20559;-78
2024/01/23 13:48:40;;;;;;;0.10;0.10;;;13.70;88.80;;;;;;5017848;28;20436;-78
2024/01/23 13:51:05;;;;;;;0.10;0.10;;;13.70;88.80;;;;;;5018251;28;20034;-78
2024/01/23 13:53:31;;;;;;;0.10;0.10;;;13.70;88.90;;;;;;5011767;28;20034;-78
2024/01/23 13:55:57;;;;;;;0.10;0.10;;;13.70;89.10;;;;;;5014193;28;20119;-78
2024/01/23 13:58:22;;;;;;;0.10;0.10;;;13.70;89.10;;;;;;5018924;28;20018;-78
2024/01/23 14:00:48;;;;;;;0.10;0.10;;;13.70;89.40;;;;;;5016447;28;20022;-78
2024/01/23 14:03:14;;;;;;;0.10;0.10;;;13.70;89.40;;;;;;5016023;28;20032;-78
2024/01/23 14:05:40;;;;;;;0.10;0.10;;;13.70;89.40;;;;;;5018490;28;20048;-78
2024/01/23 14:08:06;;;;;;;0.10;0.10;;;13.70;89.40;;;;;;5018598;28;20078;-78
2024/01/23 14:10:32;;;;;;;0.10;0.10;;;13.70;89.60;;;;;;5017472;28;20017;-78
2024/01/23 14:12:57;;;;;;;0.10;0.10;;;13.70;89.70;;;;;;5014807;28;20425;-78
2024/01/23 14:15:24;;;;;;;0.10;0.10;;;13.70;89.80;;;;;;5018609;28;20064;-78
2024/01/23 14:17:50;;;;;;;0.10;0.10;;;13.70;90.10;;;;;;5016736;28;20037;-78
2024/01/23 14:20:16;;;;;;;0.10;0.10;;;13.70;89.90;;;;;;5018478;28;20473;-79
2024/01/23 14:22:44;;;;;;;0.10;0.10;;;13.70;90.00;;;;;;5017787;28;20033;-78
2024/01/23 14:25:10;;;;;;;0.10;0.10;;;13.70;90.00;;;;;;5014855;28;20402;-78
2024/01/23 14:27:38;;;;;;;0.10;0.10;;;13.70;90.10;;;;;;5017816;28;20121;-79
2024/01/23 14:30:05;;;;;;;0.10;0.10;;;13.70;90.10;;;;;;5016431;28;20022;-78
2024/01/23 14:32:32;;;;;;;0.08;0.08;;;13.70;90.10;;;;;;5015712;28;20022;-78
2024/01/23 14:34:58;;;;;;;0.00;0.00;;;13.80;90.10;;;;;;5018015;28;20026;-78
2024/01/23 14:37:24;;;;;;;0.05;0.05;;;13.80;90.20;;;;;;5018548;28;20559;-78
2024/01/23 14:39:50;;;;;;;0.00;0.00;;;13.80;90.20;;;;;;5016848;28;20026;-78
2024/01/23 14:42:15;;;;;;;0.10;0.10;;;13.80;90.20;;;;;;5018077;28;20093;-78
2024/01/23 14:44:41;;;;;;;0.10;0.10;;;13.90;90.30;;;;;;5015745;28;20041;-78
2024/01/23 14:47:06;;;;;;;0.00;0.00;;;13.80;90.20;;;;;;5017191;28;20032;-78
2024/01/23 14:49:32;;;;;;;0.10;0.10;;;13.80;90.30;;;;;;5017812;28;20022;-78
2024/01/23 14:51:58;;;;;;;0.08;0.08;;;13.90;90.20;;;;;;5017275;28;20074;-78
2024/01/23 14:54:25;;;;;;;0.08;0.08;;;13.90;90.10;;;;;;5015327;28;20065;-78
2024/01/23 14:56:52;;;;;;;0.00;0.00;;;13.90;90.20;;;;;;5017806;28;20026;-78
2024/01/23 14:59:17;;;;;;;0.10;0.10;;;13.90;90.30;;;;;;5017831;28;20495;-78
2024/01/23 15:01:43;;;;;;;0.10;0.10;;;13.90;90.20;;;;;;5015812;28;20368;-79
2024/01/23 15:04:09;;;;;;;0.10;0.10;;;14.00;90.20;;;;;;5015000;28;20029;-83
2024/01/23 15:06:35;;;;;;;0.10;0.10;;;14.00;90.20;;;;;;5016377;28;20054;-79
2024/01/23 15:09:01;;;;;;;0.10;0.10;;;14.00;90.10;;;;;;5011944;28;20025;-78
2024/01/23 15:11:27;;;;;;;0.10;0.10;;;14.00;90.10;;;;;;5017913;28;20060;-79
2024/01/23 15:13:53;;;;;;;0.00;0.00;;;14.00;89.90;;;;;;5017522;28;20913;-79
2024/01/23 15:16:18;;;;;;;0.10;0.10;;;14.10;89.90;;;;;;5017389;28;20030;-78
2024/01/23 15:18:45;;;;;;;0.10;0.10;;;14.20;89.90;;;;;;5015312;28;20049;-79
2024/01/23 15:21:11;;;;;;;0.00;0.00;;;14.20;89.90;;;;;;5017603;28;20026;-79
2024/01/23 15:23:36;;;;;;;0.10;0.10;;;14.20;89.70;;;;;;5017247;28;20025;-79
2024/01/23 15:26:02;;;;;;;0.10;0.10;;;14.20;89.70;;;;;;5017267;28;20064;-79
2024/01/23 15:28:28;;;;;;;0.10;0.10;;;14.20;89.70;;;;;;5014136;28;20097;-79
2024/01/23 15:30:54;;;;;;;0.00;0.00;;;14.30;89.70;;;;;;5017177;28;20026;-79
2024/01/23 15:33:20;;;;;;;0.10;0.10;;;14.30;89.70;;;;;;5014239;28;20512;-79
2024/01/23 15:35:46;;;;;;;0.10;0.10;;;14.30;89.60;;;;;;5015028;28;20112;-79
2024/01/23 15:38:12;;;;;;;0.00;0.00;;;14.20;89.60;;;;;;5017097;28;20026;-78
2024/01/23 15:40:37;;;;;;;0.10;0.10;;;14.30;89.70;;;;;;5015056;28;20029;-79
2024/01/23 15:43:03;;;;;;;0.10;0.10;;;14.30;89.70;;;;;;5016012;28;20026;-79
2024/01/23 15:45:30;;;;;;;0.00;0.00;;;14.20;89.70;;;;;;5016926;28;20022;-78
2024/01/23 15:47:55;;;;;;;0.05;0.05;;;14.20;89.80;;;;;;5015178;28;20457;-78
2024/01/23 15:50:21;;;;;;;0.00;0.00;;;14.20;89.90;;;;;;5016506;28;20022;-79
2024/01/23 15:52:47;;;;;;;0.00;0.00;;;14.10;89.80;;;;;;5012063;28;20042;-79
2024/01/23 15:55:15;;;;;;;0.10;0.10;;;14.10;89.90;;;;;;5010939;28;20034;-79
2024/01/23 15:57:42;;;;;;;0.00;0.00;;;14.10;90.00;;;;;;5015460;28;20021;-79
2024/01/23 16:00:09;;;;;;;0.10;0.10;;;14.10;90.00;;;;;;5016964;28;20108;-79
2024/01/23 16:02:35;;;;;;;0.05;0.05;;;14.00;90.10;;;;;;5015005;28;20453;-79
2024/01/23 16:05:02;;;;;;;0.10;0.10;;;14.00;90.10;;;;;;5016301;28;20034;-79
2024/01/23 16:07:27;;;;;;;0.10;0.10;;;14.00;90.10;;;;;;5011306;28;20018;-79
2024/01/23 16:09:53;;;;;;;0.10;0.10;;;14.00;90.00;;;;;;5007028;28;20029;-79
2024/01/23 16:12:19;;;;;;;0.00;0.00;;;14.00;89.90;;;;;;4999940;28;20022;-79
2024/01/23 16:14:44;;;;;;;0.00;0.00;;;14.00;89.90;;;;;;4997190;28;20149;-79
2024/01/23 16:17:11;;;;;;;0.10;0.10;;;14.00;89.80;;;;;;5014540;28;20387;-79
2024/01/23 16:19:36;;;;;;;0.10;0.10;;;14.00;89.80;;;;;;5016071;28;20159;-79
2024/01/23 16:22:03;;;;;;;0.10;0.10;;;13.90;89.80;;;;;;5012333;28;20049;-81
2024/01/23 16:24:29;;;;;;;0.10;0.10;;;13.90;89.70;;;;;;5016383;28;20021;-86
2024/01/23 16:26:56;;;;;;;0.10;0.10;;;13.90;89.70;;;;;;5008326;28;20026;-86
2024/01/23 16:29:22;;;;;;;0.10;0.10;;;13.90;89.70;;;;;;4997195;28;20490;-86
2024/01/23 16:31:48;;;;;;;0.10;0.10;;;13.90;89.60;;;;;;4996058;28;20100;-86
2024/01/23 16:34:13;;;;;;;0.08;0.08;;;13.90;89.60;;;;;;4999554;28;20125;-87
2024/01/23 16:36:39;;;;;;;0.00;0.00;;;13.90;89.70;;;;;;5011330;28;20018;-87
2024/01/23 16:39:05;;;;;;;0.10;0.10;;;13.90;89.60;;;;;;5014969;28;20038;-86
2024/01/23 16:41:31;;;;;;;0.10;0.10;;;13.90;89.70;;;;;;5010592;28;20018;-85
2024/01/23 16:43:56;;;;;;;0.00;0.00;;;13.80;89.80;;;;;;5004326;28;20054;-86
2024/01/23 16:46:22;;;;;;;0.10;0.10;;;13.80;89.80;;;;;;5015396;28;20026;-86
2024/01/23 16:48:48;;;;;;;0.00;0.00;;;13.80;89.90;;;;;;5011258;28;20031;-86
2024/01/23 16:51:14;;;;;;;0.00;0.00;;;13.80;89.90;;;;;;5011568;28;20052;-86
2024/01/23 16:53:40;;;;;;;0.00;0.00;;;13.80;89.90;;;;;;5012109;28;20425;-87
2024/01/23 16:56:06;;;;;;;0.03;0.03;;;13.80;89.80;;;;;;5011764;28;20034;-87
2024/01/23 16:58:31;;;;;;;0.00;0.00;;;13.80;89.90;;;;;;4997165;28;20019;-86
2024/01/23 17:00:57;;;;;;;0.10;0.10;;;13.80;89.90;;;;;;5012066;28;20026;-82
2024/01/23 17:03:23;;;;;;;0.00;0.00;;;13.80;89.90;;;;;;5014349;28;20036;-82
2024/01/23 17:05:48;;;;;;;0.10;0.10;;;13.80;90.00;;;;;;5009358;28;20045;-82
2024/01/23 17:08:14;;;;;;;0.10;0.10;;;13.80;90.00;;;;;;5003919;28;20042;-82
2024/01/23 17:10:40;;;;;;;0.00;0.00;;;13.80;90.00;;;;;;5014473;28;20026;-82
2024/01/23 17:13:06;;;;;;;0.00;0.00;;;13.80;89.90;;;;;;5015936;28;20029;-82
2024/01/23 17:15:32;;;;;;;0.10;0.10;;;13.80;89.90;;;;;;5014644;28;20499;-82
2024/01/23 17:17:58;;;;;;;0.00;0.00;;;13.80;89.90;;;;;;5013821;28;20104;-81
2024/01/23 17:20:24;;;;;;;0.05;0.05;;;13.80;89.90;;;;;;5014538;28;20100;-82
2024/01/23 17:22:50;;;;;;;0.05;0.05;;;13.80;89.80;;;;;;5015701;28;20020;-82
2024/01/23 17:25:16;;;;;;;0.10;0.10;;;13.90;89.70;;;;;;5013181;28;20069;-82
2024/01/23 17:27:42;;;;;;;0.00;0.00;;;13.90;89.80;;;;;;5014296;28;20060;-82
2024/01/23 17:30:08;;;;;;;0.05;0.05;;;13.90;89.80;;;;;;5016746;28;20033;-83
2024/01/23 17:32:34;;;;;;;0.10;0.10;;;13.90;89.80;;;;;;5013962;28;20219;-85
2024/01/23 17:35:05;;;;;;;0.00;0.00;;;13.90;89.70;;;;;;5003679;28;20038;-86
2024/01/23 17:37:43;;;;;;;0.00;0.00;;;13.90;89.70;;;;;;5012916;28;20053;-84
2024/01/23 17:40:09;;;;;;;0.10;0.10;;;13.80;89.80;;;;;;5013728;28;20101;-81
2024/01/23 17:42:45;;;;;;;0.10;0.10;;;13.80;89.90;;;;;;5007007;28;20027;-83
2024/01/23 17:45:11;;;;;;;0.10;0.10;;;13.80;89.90;;;;;;5010544;28;20038;-85
2024/01/23 17:47:45;;;;;;;0.00;0.00;;;13.80;89.90;;;;;;5009786;28;20508;-87
2024/01/23 17:50:23;;;;;;;;;;;;;;;;;;;;;
2024/01/23 17:52:59;;;;;;;;;;;;;;;;;;;;;
2024/01/23 17:55:28;;;;;;;0.00;0.00;;;13.80;90.00;;;;;;5014517;28;20551;-88
2024/01/23 17:58:55;;;;;;;0.10;0.10;;;13.80;90.00;;;;;;5014225;28;20108;-85
2024/01/23 18:01:21;;;;;;;0.00;0.00;;;13.80;90.00;;;;;;4956906;29;20434;-87
2024/01/23 18:03:46;;;;;;;0.08;0.08;;;13.80;90.00;;;;;;4941492;29;20027;-79
2024/01/23 18:07:11;;;;;;;0.10;0.10;;;13.80;90.00;;;;;;4995157;28;20046;-83
2024/01/23 18:10:01;;;;;;;0.00;0.00;;;13.90;90.00;;;;;;4974197;28;20038;-80
2024/01/23 18:12:41;;;;;;;0.10;0.10;;;13.80;90.00;;;;;;5016372;28;20649;-84
2024/01/23 18:15:13;;;;;;;0.10;0.10;;;13.80;90.10;;;;;;5018063;28;20045;-80
2024/01/23 18:17:39;;;;;;;0.10;0.10;;;13.80;90.20;;;;;;5020111;28;20069;-82
2024/01/23 18:20:08;;;;;;;0.10;0.10;;;13.80;90.20;;;;;;5017897;28;20053;-82
2024/01/23 18:22:34;;;;;;;0.10;0.10;;;13.80;90.40;;;;;;5012860;28;20478;-86
2024/01/23 18:25:01;;;;;;;0.10;0.10;;;13.80;90.50;;;;;;5016658;28;20020;-81
2024/01/23 18:27:54;;;;;;;0.00;0.00;;;13.80;90.80;;;;;;5015822;28;20080;-87
2024/01/23 18:30:20;;;;;;;0.10;0.10;;;13.80;90.70;;;;;;5015851;28;20460;-80
2024/01/23 18:32:46;;;;;;;0.00;0.00;;;13.80;90.80;;;;;;5013080;28;20018;-80
2024/01/23 18:35:12;;;;;;;0.10;0.10;;;13.80;90.80;;;;;;5012532;28;20165;-80
2024/01/23 18:37:38;;;;;;;0.00;0.00;;;13.70;90.90;;;;;;5009657;28;20045;-81
2024/01/23 18:40:04;;;;;;;0.00;0.00;;;13.70;90.90;;;;;;5015850;28;20022;-85
2024/01/23 18:42:29;;;;;;;0.10;0.10;;;13.70;90.90;;;;;;5015581;28;20552;-84